sensor_id;sensor_type;location;lat;lon;timestamp;pressure;altitude;pressure_sealevel;temperature;humidity
12178;BME280;6152;48.728;9.256;2023-04-30T00:01:50;97342.22;;;11.07;100.00
12178;BME280;6152;48.728;9.256;2023-04-30T00:04:16;97345.97;;;11.03;100.00
12178;BME280;6152;48.728;9.256;2023-04-30T00:06:42;97345.38;;;10.98;100.00
12178;BME280;6152;48.728;9.256;2023-04-30T00:09:09;97344.44;;;10.99;100.00
12178;BME280;6152;48.728;9.256;2023-04-30T00:11:35;97351.31;;;11.00;100.00
12178;BME280;6152;48.728;9.256;2023-04-30T00:14:01;97349.88;;;11.10;100.00
12178;BME280;6152;48.728;9.256;2023-04-30T00:16:27;97350.22;;;11.04;100.00
12178;BME280;6152;48.728;9.256;2023-04-30T00:18:53;97354.94;;;10.97;100.00
12178;BME280;6152;48.728;9.256;2023-04-30T00:21:19;97349.75;;;10.97;100.00
12178;BME280;6152;48.728;9.256;2023-04-30T00:23:45;97347.72;;;11.02;100.00
12178;BME280;6152;48.728;9.256;2023-04-30T00:26:11;97344.44;;;10.99;100.00
12178;BME280;6152;48.728;9.256;2023-04-30T00:28:37;97349.75;;;10.97;100.00
12178;BME280;6152;48.728;9.256;2023-04-30T00:31:03;97343.69;;;10.97;100.00
12178;BME280;6152;48.728;9.256;2023-04-30T00:33:34;97347.25;;;10.96;100.00
12178;BME280;6152;48.728;9.256;2023-04-30T00:36:00;97338.66;;;10.94;100.00
12178;BME280;6152;48.728;9.256;2023-04-30T00:38:26;97340.53;;;10.92;100.00
12178;BME280;6152;48.728;9.256;2023-04-30T00:40:53;97346.66;;;10.91;100.00
12178;BME280;6152;48.728;9.256;2023-04-30T00:43:19;97343.69;;;10.97;100.00
12178;BME280;6152;48.728;9.256;2023-04-30T00:45:45;97349.06;;;10.94;100.00
12178;BME280;6152;48.728;9.256;2023-04-30T00:48:11;97349.38;;;10.89;100.00
12178;BME280;6152;48.728;9.256;2023-04-30T00:50:37;97345.06;;;10.88;100.00
12178;BME280;6152;48.728;9.256;2023-04-30T00:53:04;97353.63;;;10.90;100.00
12178;BME280;6152;48.728;9.256;2023-04-30T00:55:31;97353.97;;;10.84;100.00
12178;BME280;6152;48.728;9.256;2023-04-30T00:57:58;97365.41;;;10.82;100.00
12178;BME280;6152;48.728;9.256;2023-04-30T01:00:25;97357.25;;;10.88;100.00
12178;BME280;6152;48.728;9.256;2023-04-30T01:02:52;97359.84;;;10.88;100.00
12178;BME280;6152;48.728;9.256;2023-04-30T01:05:18;97353.31;;;10.81;100.00
12178;BME280;6152;48.728;9.256;2023-04-30T01:07:44;97353.31;;;10.81;100.00
12178;BME280;6152;48.728;9.256;2023-04-30T01:10:15;97359.72;;;10.75;100.00
12178;BME280;6152;48.728;9.256;2023-04-30T01:12:57;97356.34;;;10.73;100.00
12178;BME280;6152;48.728;9.256;2023-04-30T01:15:33;97358.13;;;10.73;100.00
12178;BME280;6152;48.728;9.256;2023-04-30T01:18:21;97354.84;;;10.69;100.00
12178;BME280;6152;48.728;9.256;2023-04-30T01:20:53;97351.59;;;10.65;100.00
12178;BME280;6152;48.728;9.256;2023-04-30T01:28:56;97344.53;;;10.68;100.00
12178;BME280;6152;48.728;9.256;2023-04-30T01:31:27;97352.13;;;10.56;100.00
12178;BME280;6152;48.728;9.256;2023-04-30T01:33:54;97348.78;;;10.54;100.00
12178;BME280;6152;48.728;9.256;2023-04-30T01:36:52;97345.22;;;10.55;100.00
12178;BME280;6152;48.728;9.256;2023-04-30T01:39:44;97343.75;;;10.51;100.00
12178;BME280;6152;48.728;9.256;2023-04-30T01:42:20;97344.75;;;10.49;100.00
12178;BME280;6152;48.728;9.256;2023-04-30T01:50:37;97333.50;;;10.48;100.00
12178;BME280;6152;48.728;9.256;2023-04-30T01:53:09;97333.00;;;10.42;100.00
12178;BME280;6152;48.728;9.256;2023-04-30T01:55:42;97338.31;;;10.40;100.00
12178;BME280;6152;48.728;9.256;2023-04-30T01:58:15;97340.13;;;10.38;100.00
12178;BME280;6152;48.728;9.256;2023-04-30T02:00:41;97348.03;;;10.37;100.00
12178;BME280;6152;48.728;9.256;2023-04-30T02:03:07;97343.03;;;10.34;100.00
12178;BME280;6152;48.728;9.256;2023-04-30T02:05:33;97339.22;;;10.39;100.00
12178;BME280;6152;48.728;9.256;2023-04-30T02:07:59;97340.13;;;10.38;100.00
12178;BME280;6152;48.728;9.256;2023-04-30T02:10:26;97346.53;;;10.33;100.00
12178;BME280;6152;48.728;9.256;2023-04-30T02:12:54;97342.34;;;10.30;100.00
12178;BME280;6152;48.728;9.256;2023-04-30T02:15:20;97345.63;;;10.34;100.00
12178;BME280;6152;48.728;9.256;2023-04-30T02:17:46;97336.78;;;10.36;100.00
12178;BME280;6152;48.728;9.256;2023-04-30T02:20:12;97345.50;;;10.35;100.00
12178;BME280;6152;48.728;9.256;2023-04-30T02:22:38;97341.34;;;10.33;100.00
12178;BME280;6152;48.728;9.256;2023-04-30T02:25:05;97338.56;;;10.36;100.00
12178;BME280;6152;48.728;9.256;2023-04-30T02:27:32;97343.88;;;10.34;100.00
12178;BME280;6152;48.728;9.256;2023-04-30T02:29:59;97341.34;;;10.33;100.00
12178;BME280;6152;48.728;9.256;2023-04-30T02:32:25;97340.66;;;10.29;100.00
12178;BME280;6152;48.728;9.256;2023-04-30T02:34:51;97333.94;;;10.25;100.00
12178;BME280;6152;48.728;9.256;2023-04-30T02:37:17;97341.75;;;10.25;100.00
12178;BME280;6152;48.728;9.256;2023-04-30T02:39:43;97340.84;;;10.26;100.00
12178;BME280;6152;48.728;9.256;2023-04-30T02:42:09;97340.25;;;10.21;100.00
12178;BME280;6152;48.728;9.256;2023-04-30T02:44:36;97340.34;;;10.20;100.00
12178;BME280;6152;48.728;9.256;2023-04-30T02:47:02;97338.31;;;10.25;100.00
12178;BME280;6152;48.728;9.256;2023-04-30T02:49:28;97342.53;;;10.27;100.00
12178;BME280;6152;48.728;9.256;2023-04-30T02:51:54;97342.84;;;10.21;100.00
12178;BME280;6152;48.728;9.256;2023-04-30T02:54:20;97337.75;;;10.20;100.00
12178;BME280;6152;48.728;9.256;2023-04-30T02:56:47;97341.94;;;10.22;100.00
12178;BME280;6152;48.728;9.256;2023-04-30T02:59:13;97341.25;;;10.19;100.00
12178;BME280;6152;48.728;9.256;2023-04-30T03:01:39;97340.66;;;10.13;100.00
12178;BME280;6152;48.728;9.256;2023-04-30T03:04:06;97341.81;;;10.08;100.00
12178;BME280;6152;48.728;9.256;2023-04-30T03:06:32;97343.84;;;10.03;100.00
12178;BME280;6152;48.728;9.256;2023-04-30T03:08:58;97342.81;;;10.05;100.00
12178;BME280;6152;48.728;9.256;2023-04-30T03:11:25;97344.81;;;10.00;100.00
12178;BME280;6152;48.728;9.256;2023-04-30T03:13:51;97344.09;;;9.98;100.00
12178;BME280;6152;48.728;9.256;2023-04-30T03:16:19;97351.09;;;9.96;100.00
12178;BME280;6152;48.728;9.256;2023-04-30T03:18:46;97346.84;;;9.95;100.00
12178;BME280;6152;48.728;9.256;2023-04-30T03:21:12;97344.81;;;10.00;100.00
12178;BME280;6152;48.728;9.256;2023-04-30T03:23:38;97349.34;;;9.97;100.00
12178;BME280;6152;48.728;9.256;2023-04-30T03:26:05;97344.31;;;9.94;100.00
12178;BME280;6152;48.728;9.256;2023-04-30T03:28:31;97343.66;;;9.90;100.00
12178;BME280;6152;48.728;9.256;2023-04-30T03:30:57;97334.09;;;9.91;100.00
12178;BME280;6152;48.728;9.256;2023-04-30T03:33:24;97341.16;;;9.89;100.00
12178;BME280;6152;48.728;9.256;2023-04-30T03:35:50;97339.63;;;9.85;100.00
12178;BME280;6152;48.728;9.256;2023-04-30T03:38:17;97335.28;;;9.85;100.00
12178;BME280;6152;48.728;9.256;2023-04-30T03:40:43;97339.81;;;9.82;100.00
12178;BME280;6152;48.728;9.256;2023-04-30T03:43:09;97339.97;;;9.79;100.00
12178;BME280;6152;48.728;9.256;2023-04-30T03:45:35;97335.69;;;9.78;100.00
12178;BME280;6152;48.728;9.256;2023-04-30T03:48:01;97338.28;;;9.78;100.00
12178;BME280;6152;48.728;9.256;2023-04-30T03:50:27;97343.47;;;9.78;100.00
12178;BME280;6152;48.728;9.256;2023-04-30T03:52:53;97342.63;;;9.77;100.00
12178;BME280;6152;48.728;9.256;2023-04-30T03:55:19;97336.59;;;9.77;100.00
12178;BME280;6152;48.728;9.256;2023-04-30T03:57:46;97334.91;;;9.76;100.00
12178;BME280;6152;48.728;9.256;2023-04-30T04:00:12;97339.97;;;9.79;100.00
12178;BME280;6152;48.728;9.256;2023-04-30T04:02:39;97339.31;;;9.75;100.00
12178;BME280;6152;48.728;9.256;2023-04-30T04:05:05;97341.13;;;9.73;100.00
12178;BME280;6152;48.728;9.256;2023-04-30T04:07:31;97343.03;;;9.70;100.00
12178;BME280;6152;48.728;9.256;2023-04-30T04:09:58;97343.81;;;9.72;100.00
12178;BME280;6152;48.728;9.256;2023-04-30T04:12:24;97348.16;;;9.71;100.00
12178;BME280;6152;48.728;9.256;2023-04-30T04:14:50;97345.31;;;9.76;100.00
12178;BME280;6152;48.728;9.256;2023-04-30T04:17:17;97346.31;;;9.73;100.00
12178;BME280;6152;48.728;9.256;2023-04-30T04:19:43;97343.72;;;9.73;100.00
12178;BME280;6152;48.728;9.256;2023-04-30T04:22:09;97357.56;;;9.74;100.00
12178;BME280;6152;48.728;9.256;2023-04-30T04:24:35;97357.50;;;9.75;100.00
12178;BME280;6152;48.728;9.256;2023-04-30T04:27:03;97360.91;;;9.76;100.00
12178;BME280;6152;48.728;9.256;2023-04-30T04:29:29;97355.41;;;9.82;100.00
12178;BME280;6152;48.728;9.256;2023-04-30T04:31:55;97346.66;;;9.83;100.00
12178;BME280;6152;48.728;9.256;2023-04-30T04:34:21;97353.88;;;9.78;100.00
12178;BME280;6152;48.728;9.256;2023-04-30T04:36:47;97357.38;;;9.77;100.00
12178;BME280;6152;48.728;9.256;2023-04-30T04:39:14;97364.09;;;9.81;100.00
12178;BME280;6152;48.728;9.256;2023-04-30T04:41:40;97358.00;;;9.82;100.00
12178;BME280;6152;48.728;9.256;2023-04-30T04:44:07;97354.16;;;9.89;100.00
12178;BME280;6152;48.728;9.256;2023-04-30T04:46:34;97353.38;;;9.87;100.00
12178;BME280;6152;48.728;9.256;2023-04-30T04:49:00;97372.50;;;9.86;100.00
12178;BME280;6152;48.728;9.256;2023-04-30T04:51:26;97349.69;;;9.91;100.00
12178;BME280;6152;48.728;9.256;2023-04-30T04:53:52;97358.75;;;9.84;100.00
12178;BME280;6152;48.728;9.256;2023-04-30T04:56:18;97362.84;;;9.88;100.00
12178;BME280;6152;48.728;9.256;2023-04-30T04:58:45;97361.94;;;9.89;100.00
12178;BME280;6152;48.728;9.256;2023-04-30T05:01:12;97363.47;;;9.93;100.00
12178;BME280;6152;48.728;9.256;2023-04-30T05:03:38;97357.44;;;9.92;100.00
12178;BME280;6152;48.728;9.256;2023-04-30T05:06:05;97355.16;;;10.02;100.00
12178;BME280;6152;48.728;9.256;2023-04-30T05:08:31;97356.00;;;10.02;100.00
12178;BME280;6152;48.728;9.256;2023-04-30T05:10:57;97352.44;;;10.03;100.00
12178;BME280;6152;48.728;9.256;2023-04-30T05:13:24;97357.75;;;10.02;100.00
12178;BME280;6152;48.728;9.256;2023-04-30T05:15:52;97356.50;;;10.09;100.00
12178;BME280;6152;48.728;9.256;2023-04-30T05:18:19;97356.94;;;10.17;100.00
12178;BME280;6152;48.728;9.256;2023-04-30T05:20:45;97358.44;;;10.21;100.00
12178;BME280;6152;48.728;9.256;2023-04-30T05:23:11;97363.16;;;10.30;100.00
12178;BME280;6152;48.728;9.256;2023-04-30T05:25:37;97366.16;;;10.38;100.00
12178;BME280;6152;48.728;9.256;2023-04-30T05:28:04;97368.00;;;10.36;100.00
12178;BME280;6152;48.728;9.256;2023-04-30T05:30:31;97367.66;;;10.42;100.00
12178;BME280;6152;48.728;9.256;2023-04-30T05:32:57;97367.25;;;10.50;100.00
12178;BME280;6152;48.728;9.256;2023-04-30T05:35:24;97365.97;;;10.57;100.00
12178;BME280;6152;48.728;9.256;2023-04-30T05:37:50;97362.75;;;10.68;100.00
12178;BME280;6152;48.728;9.256;2023-04-30T05:40:16;97373.41;;;10.79;100.00
12178;BME280;6152;48.728;9.256;2023-04-30T05:42:42;97365.66;;;10.93;100.00
12178;BME280;6152;48.728;9.256;2023-04-30T05:45:09;97355.06;;;10.96;100.00
12178;BME280;6152;48.728;9.256;2023-04-30T05:47:37;97364.19;;;11.03;100.00
12178;BME280;6152;48.728;9.256;2023-04-30T05:50:03;97355.41;;;11.04;100.00
12178;BME280;6152;48.728;9.256;2023-04-30T05:52:29;97355.53;;;11.02;100.00
12178;BME280;6152;48.728;9.256;2023-04-30T05:54:55;97358.25;;;11.15;100.00
12178;BME280;6152;48.728;9.256;2023-04-30T05:57:22;97367.28;;;11.24;100.00
12178;BME280;6152;48.728;9.256;2023-04-30T05:59:48;97373.34;;;11.38;100.00
12178;BME280;6152;48.728;9.256;2023-04-30T06:02:14;97371.69;;;11.51;100.00
12178;BME280;6152;48.728;9.256;2023-04-30T06:04:40;97362.22;;;11.64;100.00
12178;BME280;6152;48.728;9.256;2023-04-30T06:07:07;97371.25;;;11.73;100.00
12178;BME280;6152;48.728;9.256;2023-04-30T06:09:33;97375.09;;;11.82;100.00
12178;BME280;6152;48.728;9.256;2023-04-30T06:11:59;97366.97;;;11.86;100.00
12178;BME280;6152;48.728;9.256;2023-04-30T06:14:27;97371.88;;;12.05;100.00
12178;BME280;6152;48.728;9.256;2023-04-30T06:16:53;97366.84;;;12.16;100.00
12178;BME280;6152;48.728;9.256;2023-04-30T06:19:19;97369.31;;;12.32;100.00
12178;BME280;6152;48.728;9.256;2023-04-30T06:21:45;97372.00;;;12.44;100.00
12178;BME280;6152;48.728;9.256;2023-04-30T06:24:12;97369.84;;;12.51;100.00
12178;BME280;6152;48.728;9.256;2023-04-30T06:26:38;97373.41;;;12.62;100.00
12178;BME280;6152;48.728;9.256;2023-04-30T06:29:04;97363.09;;;12.74;100.00
12178;BME280;6152;48.728;9.256;2023-04-30T06:31:30;97377.25;;;12.84;100.00
12178;BME280;6152;48.728;9.256;2023-04-30T06:33:56;97372.66;;;13.00;100.00
12178;BME280;6152;48.728;9.256;2023-04-30T06:36:22;97370.59;;;13.05;100.00
12178;BME280;6152;48.728;9.256;2023-04-30T06:38:49;97372.97;;;13.22;100.00
12178;BME280;6152;48.728;9.256;2023-04-30T06:41:15;97373.81;;;13.35;100.00
12178;BME280;6152;48.728;9.256;2023-04-30T06:43:42;97376.13;;;13.40;100.00
12178;BME280;6152;48.728;9.256;2023-04-30T06:46:08;97378.63;;;13.41;100.00
12178;BME280;6152;48.728;9.256;2023-04-30T06:48:35;97375.41;;;13.50;100.00
12178;BME280;6152;48.728;9.256;2023-04-30T06:51:01;97367.31;;;13.66;100.00
12178;BME280;6152;48.728;9.256;2023-04-30T06:53:27;97373.38;;;13.79;100.00
12178;BME280;6152;48.728;9.256;2023-04-30T06:55:53;97373.72;;;13.75;100.00
12178;BME280;6152;48.728;9.256;2023-04-30T06:58:20;97376.94;;;13.91;100.00
12178;BME280;6152;48.728;9.256;2023-04-30T07:00:46;97376.63;;;13.83;100.00
12178;BME280;6152;48.728;9.256;2023-04-30T07:03:12;97382.81;;;13.82;100.00
12178;BME280;6152;48.728;9.256;2023-04-30T07:05:38;97373.19;;;13.82;100.00
12178;BME280;6152;48.728;9.256;2023-04-30T07:08:06;97372.94;;;13.98;100.00
12178;BME280;6152;48.728;9.256;2023-04-30T07:10:32;97371.00;;;14.25;100.00
12178;BME280;6152;48.728;9.256;2023-04-30T07:13:05;97368.91;;;14.17;100.00
12178;BME280;6152;48.728;9.256;2023-04-30T07:15:33;97360.75;;;14.22;100.00
12178;BME280;6152;48.728;9.256;2023-04-30T07:17:59;97368.28;;;14.39;100.00
12178;BME280;6152;48.728;9.256;2023-04-30T07:20:25;97370.78;;;14.41;100.00
12178;BME280;6152;48.728;9.256;2023-04-30T07:22:51;97372.44;;;14.42;100.00
12178;BME280;6152;48.728;9.256;2023-04-30T07:25:19;97363.38;;;14.58;100.00
12178;BME280;6152;48.728;9.256;2023-04-30T07:27:45;97371.41;;;14.68;100.00
12178;BME280;6152;48.728;9.256;2023-04-30T07:30:11;97362.94;;;14.41;100.00
12178;BME280;6152;48.728;9.256;2023-04-30T07:32:38;97362.09;;;14.28;100.00
12178;BME280;6152;48.728;9.256;2023-04-30T07:35:06;97357.50;;;14.18;100.00
12178;BME280;6152;48.728;9.256;2023-04-30T07:37:32;97357.81;;;14.27;100.00
12178;BME280;6152;48.728;9.256;2023-04-30T07:39:58;97357.59;;;14.30;100.00
12178;BME280;6152;48.728;9.256;2023-04-30T07:42:24;97357.78;;;14.39;100.00
12178;BME280;6152;48.728;9.256;2023-04-30T07:44:54;97356.63;;;14.43;100.00
12178;BME280;6152;48.728;9.256;2023-04-30T07:47:20;97355.47;;;14.47;100.00
12178;BME280;6152;48.728;9.256;2023-04-30T07:49:47;97348.56;;;14.46;100.00
12178;BME280;6152;48.728;9.256;2023-04-30T07:52:14;97349.16;;;14.50;100.00
12178;BME280;6152;48.728;9.256;2023-04-30T07:54:40;97346.16;;;14.67;100.00
12178;BME280;6152;48.728;9.256;2023-04-30T07:57:06;97341.44;;;14.83;100.00
12178;BME280;6152;48.728;9.256;2023-04-30T07:59:32;97345.72;;;15.08;100.00
12178;BME280;6152;48.728;9.256;2023-04-30T08:01:59;97358.16;;;15.28;97.32
12178;BME280;6152;48.728;9.256;2023-04-30T08:04:26;97341.88;;;15.47;95.51
12178;BME280;6152;48.728;9.256;2023-04-30T08:06:52;97344.44;;;15.82;86.22
12178;BME280;6152;48.728;9.256;2023-04-30T08:09:18;97345.38;;;16.03;85.68
12178;BME280;6152;48.728;9.256;2023-04-30T08:11:44;97341.66;;;16.16;81.05
12178;BME280;6152;48.728;9.256;2023-04-30T08:14:10;97344.41;;;16.15;79.12
12178;BME280;6152;48.728;9.256;2023-04-30T08:16:37;97352.78;;;15.98;81.80
12178;BME280;6152;48.728;9.256;2023-04-30T08:19:03;97340.13;;;15.81;80.09
12178;BME280;6152;48.728;9.256;2023-04-30T08:21:30;97346.31;;;15.91;77.87
12178;BME280;6152;48.728;9.256;2023-04-30T08:23:56;97347.38;;;16.10;75.70
12178;BME280;6152;48.728;9.256;2023-04-30T08:26:23;97345.84;;;16.19;73.06
12178;BME280;6152;48.728;9.256;2023-04-30T08:28:49;97351.53;;;16.35;72.65
12178;BME280;6152;48.728;9.256;2023-04-30T08:31:16;97350.38;;;17.03;70.93
12178;BME280;6152;48.728;9.256;2023-04-30T08:33:43;97346.47;;;17.90;60.07
12178;BME280;6152;48.728;9.256;2023-04-30T08:36:09;97347.91;;;18.43;60.51
12178;BME280;6152;48.728;9.256;2023-04-30T08:38:35;97346.56;;;19.64;52.25
12178;BME280;6152;48.728;9.256;2023-04-30T08:41:08;97345.94;;;19.80;51.42
12178;BME280;6152;48.728;9.256;2023-04-30T08:43:35;97351.88;;;19.26;50.19
12178;BME280;6152;48.728;9.256;2023-04-30T08:46:01;97343.69;;;18.22;52.07
12178;BME280;6152;48.728;9.256;2023-04-30T08:48:28;97345.31;;;17.52;54.33
12178;BME280;6152;48.728;9.256;2023-04-30T08:50:54;97341.84;;;17.31;56.31
12178;BME280;6152;48.728;9.256;2023-04-30T08:53:21;97347.88;;;17.22;57.70
12178;BME280;6152;48.728;9.256;2023-04-30T08:55:47;97350.69;;;16.89;58.46
12178;BME280;6152;48.728;9.256;2023-04-30T08:58:13;97350.66;;;16.57;57.71
12178;BME280;6152;48.728;9.256;2023-04-30T09:00:40;97352.03;;;16.29;59.63
12178;BME280;6152;48.728;9.256;2023-04-30T09:03:07;97350.59;;;16.14;60.68
12178;BME280;6152;48.728;9.256;2023-04-30T09:05:33;97352.03;;;16.07;61.67
12178;BME280;6152;48.728;9.256;2023-04-30T09:07:59;97349.19;;;16.10;59.69
12178;BME280;6152;48.728;9.256;2023-04-30T09:10:26;97356.56;;;16.16;59.70
12178;BME280;6152;48.728;9.256;2023-04-30T09:13:08;97350.84;;;16.22;59.87
12178;BME280;6152;48.728;9.256;2023-04-30T09:15:36;97347.47;;;16.31;59.36
12178;BME280;6152;48.728;9.256;2023-04-30T09:18:13;97352.25;;;16.26;58.68
12178;BME280;6152;48.728;9.256;2023-04-30T09:20:59;97349.38;;;16.40;59.86
12178;BME280;6152;48.728;9.256;2023-04-30T09:23:29;97348.22;;;16.22;59.51
12178;BME280;6152;48.728;9.256;2023-04-30T09:25:56;97343.44;;;16.16;60.16
12178;BME280;6152;48.728;9.256;2023-04-30T09:28:22;97345.13;;;16.06;60.59
12178;BME280;6152;48.728;9.256;2023-04-30T09:30:52;97344.03;;;15.86;60.41
12178;BME280;6152;48.728;9.256;2023-04-30T09:33:18;97350.25;;;15.96;60.47
12178;BME280;6152;48.728;9.256;2023-04-30T09:35:45;97351.81;;;15.99;59.65
12178;BME280;6152;48.728;9.256;2023-04-30T09:38:31;97342.75;;;15.92;60.00
12178;BME280;6152;48.728;9.256;2023-04-30T09:40:59;97344.78;;;15.99;59.38
12178;BME280;6152;48.728;9.256;2023-04-30T09:43:26;97346.09;;;15.94;58.69
12178;BME280;6152;48.728;9.256;2023-04-30T09:45:52;97341.56;;;15.85;58.83
12178;BME280;6152;48.728;9.256;2023-04-30T09:48:23;97347.50;;;15.76;61.12
12178;BME280;6152;48.728;9.256;2023-04-30T09:50:50;97349.19;;;15.88;60.66
12178;BME280;6152;48.728;9.256;2023-04-30T09:53:16;97346.91;;;15.94;60.08
12178;BME280;6152;48.728;9.256;2023-04-30T09:55:48;97338.22;;;15.94;60.49
12178;BME280;6152;48.728;9.256;2023-04-30T09:58:16;97345.00;;;15.96;59.47
12178;BME280;6152;48.728;9.256;2023-04-30T10:00:44;97340.34;;;16.00;59.38
12178;BME280;6152;48.728;9.256;2023-04-30T10:03:13;97339.97;;;16.15;58.39
12178;BME280;6152;48.728;9.256;2023-04-30T10:05:50;97343.88;;;16.43;56.33
12178;BME280;6152;48.728;9.256;2023-04-30T10:08:23;97342.28;;;16.63;54.90
12178;BME280;6152;48.728;9.256;2023-04-30T10:10:57;97342.75;;;16.68;54.15
12178;BME280;6152;48.728;9.256;2023-04-30T10:13:27;97337.59;;;16.78;52.92
12178;BME280;6152;48.728;9.256;2023-04-30T10:16:00;97340.38;;;16.65;55.63
12178;BME280;6152;48.728;9.256;2023-04-30T10:18:33;97339.56;;;16.64;56.78
12178;BME280;6152;48.728;9.256;2023-04-30T10:21:03;97337.94;;;16.73;55.87
12178;BME280;6152;48.728;9.256;2023-04-30T10:23:36;97337.25;;;16.71;55.58
12178;BME280;6152;48.728;9.256;2023-04-30T10:26:03;97337.97;;;16.62;54.16
12178;BME280;6152;48.728;9.256;2023-04-30T10:28:31;97330.81;;;17.37;53.08
12178;BME280;6152;48.728;9.256;2023-04-30T10:30:58;97330.66;;;18.89;51.00
12178;BME280;6152;48.728;9.256;2023-04-30T10:33:33;97333.56;;;18.95;46.87
12178;BME280;6152;48.728;9.256;2023-04-30T10:36:04;97330.50;;;19.09;47.71
12178;BME280;6152;48.728;9.256;2023-04-30T10:38:32;97322.00;;;19.91;46.95
12178;BME280;6152;48.728;9.256;2023-04-30T10:41:01;97326.44;;;20.27;45.88
12178;BME280;6152;48.728;9.256;2023-04-30T10:43:29;97331.09;;;20.60;44.41
12178;BME280;6152;48.728;9.256;2023-04-30T10:45:57;97333.59;;;20.44;43.24
12178;BME280;6152;48.728;9.256;2023-04-30T10:48:23;97327.06;;;20.39;43.09
12178;BME280;6152;48.728;9.256;2023-04-30T10:50:59;97329.44;;;20.05;42.83
12178;BME280;6152;48.728;9.256;2023-04-30T10:53:25;97327.00;;;19.47;45.35
12178;BME280;6152;48.728;9.256;2023-04-30T10:56:00;97323.53;;;19.18;46.29
12178;BME280;6152;48.728;9.256;2023-04-30T10:58:35;97318.59;;;18.96;47.67
12178;BME280;6152;48.728;9.256;2023-04-30T11:01:10;97315.22;;;19.03;47.77
12178;BME280;6152;48.728;9.256;2023-04-30T11:03:38;97306.91;;;18.89;46.39
12178;BME280;6152;48.728;9.256;2023-04-30T11:06:15;97303.03;;;18.74;45.94
12178;BME280;6152;48.728;9.256;2023-04-30T11:08:46;97310.75;;;18.46;48.45
12178;BME280;6152;48.728;9.256;2023-04-30T11:11:17;97305.19;;;18.30;47.43
12178;BME280;6152;48.728;9.256;2023-04-30T11:13:47;97302.91;;;18.16;48.24
12178;BME280;6152;48.728;9.256;2023-04-30T11:16:16;97302.56;;;18.00;49.22
12178;BME280;6152;48.728;9.256;2023-04-30T11:18:45;97303.56;;;17.99;48.33
12178;BME280;6152;48.728;9.256;2023-04-30T11:21:12;97304.41;;;17.99;49.23
12178;BME280;6152;48.728;9.256;2023-04-30T11:23:42;97307.44;;;17.95;49.60
12178;BME280;6152;48.728;9.256;2023-04-30T11:26:09;97303.28;;;17.92;48.98
12178;BME280;6152;48.728;9.256;2023-04-30T11:28:36;97305.94;;;18.02;48.52
12178;BME280;6152;48.728;9.256;2023-04-30T11:31:03;97300.38;;;18.05;48.70
12178;BME280;6152;48.728;9.256;2023-04-30T11:33:30;97293.84;;;17.59;47.69
12178;BME280;6152;48.728;9.256;2023-04-30T11:35:59;97301.91;;;17.67;49.90
12178;BME280;6152;48.728;9.256;2023-04-30T11:38:32;97303.38;;;17.81;48.77
12178;BME280;6152;48.728;9.256;2023-04-30T11:40:59;97298.06;;;17.72;47.96
12178;BME280;6152;48.728;9.256;2023-04-30T11:43:27;97297.53;;;17.78;48.98
12178;BME280;6152;48.728;9.256;2023-04-30T11:46:10;97294.00;;;17.98;47.02
12178;BME280;6152;48.728;9.256;2023-04-30T11:48:39;97286.84;;;18.38;47.37
12178;BME280;6152;48.728;9.256;2023-04-30T11:53:39;97287.69;;;18.48;46.40
12178;BME280;6152;48.728;9.256;2023-04-30T11:56:06;97288.09;;;18.25;46.76
12178;BME280;6152;48.728;9.256;2023-04-30T11:58:34;97281.94;;;18.05;47.23
12178;BME280;6152;48.728;9.256;2023-04-30T12:01:03;97274.31;;;18.02;48.84
12178;BME280;6152;48.728;9.256;2023-04-30T12:03:29;97273.47;;;17.92;47.95
12178;BME280;6152;48.728;9.256;2023-04-30T12:05:56;97277.66;;;18.13;48.41
12178;BME280;6152;48.728;9.256;2023-04-30T12:08:22;97274.03;;;18.64;47.74
12178;BME280;6152;48.728;9.256;2023-04-30T12:10:49;97273.00;;;19.23;47.22
12178;BME280;6152;48.728;9.256;2023-04-30T12:13:15;97267.44;;;19.26;45.26
12178;BME280;6152;48.728;9.256;2023-04-30T12:15:41;97270.19;;;19.24;44.28
12178;BME280;6152;48.728;9.256;2023-04-30T12:18:12;97270.38;;;18.94;45.23
12178;BME280;6152;48.728;9.256;2023-04-30T12:20:40;97270.69;;;18.81;46.21
12178;BME280;6152;48.728;9.256;2023-04-30T12:23:07;97269.44;;;18.66;45.79
12178;BME280;6152;48.728;9.256;2023-04-30T12:25:40;97267.50;;;18.68;47.33
12178;BME280;6152;48.728;9.256;2023-04-30T12:28:08;97269.53;;;18.45;46.42
12178;BME280;6152;48.728;9.256;2023-04-30T12:30:34;97264.16;;;18.56;47.40
12178;BME280;6152;48.728;9.256;2023-04-30T12:33:01;97269.84;;;18.90;47.06
12178;BME280;6152;48.728;9.256;2023-04-30T12:35:29;97278.00;;;18.97;47.66
12178;BME280;6152;48.728;9.256;2023-04-30T12:38:05;97267.88;;;18.83;46.39
12178;BME280;6152;48.728;9.256;2023-04-30T12:40:32;97271.38;;;18.54;46.33
12178;BME280;6152;48.728;9.256;2023-04-30T12:43:06;97264.94;;;18.38;46.90
12178;BME280;6152;48.728;9.256;2023-04-30T12:45:52;97273.56;;;18.40;49.08
12178;BME280;6152;48.728;9.256;2023-04-30T12:48:23;97269.53;;;18.45;49.01
12178;BME280;6152;48.728;9.256;2023-04-30T12:51:01;97270.97;;;18.69;48.65
12178;BME280;6152;48.728;9.256;2023-04-30T12:53:28;97267.22;;;18.71;46.75
12178;BME280;6152;48.728;9.256;2023-04-30T12:56:14;97260.78;;;19.12;46.09
12178;BME280;6152;48.728;9.256;2023-04-30T12:58:43;97259.91;;;19.21;46.51
12178;BME280;6152;48.728;9.256;2023-04-30T13:01:18;97249.78;;;19.26;45.71
12178;BME280;6152;48.728;9.256;2023-04-30T13:03:46;97243.25;;;19.30;45.61
12178;BME280;6152;48.728;9.256;2023-04-30T13:06:12;97232.94;;;19.37;44.54
12178;BME280;6152;48.728;9.256;2023-04-30T13:08:38;97237.16;;;19.20;46.58
12178;BME280;6152;48.728;9.256;2023-04-30T13:11:05;97240.00;;;18.99;45.90
12178;BME280;6152;48.728;9.256;2023-04-30T13:13:32;97236.97;;;18.65;47.85
12178;BME280;6152;48.728;9.256;2023-04-30T13:15:59;97237.53;;;18.59;48.17
12178;BME280;6152;48.728;9.256;2023-04-30T13:18:25;97234.06;;;18.69;47.81
12178;BME280;6152;48.728;9.256;2023-04-30T13:20:51;97225.59;;;18.75;46.64
12178;BME280;6152;48.728;9.256;2023-04-30T13:23:17;97223.09;;;18.73;47.75